^^
Station Historical Data
Daily Summary for February 14, 2018 Units:  Both    English   Metric
« Previous Day
Next Day »
Daily Weekly Monthly Yearly Custom
  High: Low: Average:
Temperature: 42.4 °F /  5.8 °C 20.7 °F /  -6.3 °C 32.2 °F /  0.1 °C
Dew Point: 32.4 °F /  0.2 °C 14.0 °F /  -10 °C 23.8 °F /  -4.6 °C
Humidity: 92% 60% 71%
Wind Speed: 8.0mph /  12.9km/h - 3.1mph /  5km/h
Wind Gust: 9.0mph /  14.5km/h - -
Wind- - WSW
Pressure: 29.79 in /  1008.7 hPa 29.51 in /  999.2 hPa -
Precipitation: 0.00 in /  0 mm    
Historical Graphs
 
 
Tabular Data for February 14, 2018
Time Temperature Dew Point Pressure Wind Wind Speed Wind Gust Humidity Rainfall Rate (Hourly) solar Conditions
00:01 24.5 °F /  -4.2 °C 15.8 °F /  -9 °C 29.79in /  1008.7hPa WSW 4.0mph /  6.4km/h 6.0mph /  9.7km/h 69% 0.00in /  0mm 0 W/m2
00:06 24.6 °F /  -4.1 °C 15.9 °F /  -8.9 °C 29.79in /  1008.7hPa SW 2.0mph /  3.2km/h 6.0mph /  9.7km/h 69% 0.00in /  0mm 0 W/m2
00:11 24.6 °F /  -4.1 °C 15.9 °F /  -8.9 °C 29.78in /  1008.4hPa WSW 4.0mph /  6.4km/h 6.0mph /  9.7km/h 69% 0.00in /  0mm 0 W/m2
00:16 24.4 °F /  -4.2 °C 15.7 °F /  -9.1 °C 29.78in /  1008.4hPa WSW 4.0mph /  6.4km/h 5.0mph /  8km/h 69% 0.00in /  0mm 0 W/m2
00:21 23.8 °F /  -4.6 °C 15.1 °F /  -9.4 °C 29.78in /  1008.4hPa WSW 4.0mph /  6.4km/h 5.0mph /  8km/h 69% 0.00in /  0mm 0 W/m2
00:26 23.3 °F /  -4.8 °C 15.0 °F /  -9.4 °C 29.78in /  1008.4hPa WSW 5.0mph /  8km/h 5.0mph /  8km/h 70% 0.00in /  0mm 0 W/m2
00:31 23.1 °F /  -4.9 °C 14.8 °F /  -9.6 °C 29.78in /  1008.4hPa WSW 5.0mph /  8km/h 5.0mph /  8km/h 70% 0.00in /  0mm 0 W/m2
00:36 22.9 °F /  -5.1 °C 14.9 °F /  -9.5 °C 29.78in /  1008.4hPa WSW 3.0mph /  4.8km/h 5.0mph /  8km/h 71% 0.00in /  0mm 0 W/m2
00:41 22.7 °F /  -5.2 °C 14.7 °F /  -9.6 °C 29.78in /  1008.4hPa Calm   5.0mph /  8km/h 71% 0.00in /  0mm 0 W/m2
00:46 22.7 °F /  -5.2 °C 14.7 °F /  -9.6 °C 29.77in /  1008hPa WSW 5.0mph /  8km/h 5.0mph /  8km/h 71% 0.00in /  0mm 0 W/m2
00:51 23.0 °F /  -5 °C 15.0 °F /  -9.4 °C 29.77in /  1008hPa West 4.0mph /  6.4km/h 5.0mph /  8km/h 71% 0.00in /  0mm 0 W/m2
00:56 23.3 °F /  -4.8 °C 15.0 °F /  -9.4 °C 29.77in /  1008hPa WSW 4.0mph /  6.4km/h 5.0mph /  8km/h 70% 0.00in /  0mm 0 W/m2
01:01 23.0 °F /  -5 °C 14.7 °F /  -9.6 °C 29.77in /  1008hPa WSW 4.0mph /  6.4km/h 5.0mph /  8km/h 70% 0.00in /  0mm 0 W/m2
01:06 22.6 °F /  -5.2 °C 14.6 °F /  -9.7 °C 29.77in /  1008hPa WSW 4.0mph /  6.4km/h 5.0mph /  8km/h 71% 0.00in /  0mm 0 W/m2
01:11 22.5 °F /  -5.3 °C 14.5 °F /  -9.7 °C 29.76in /  1007.7hPa WSW 3.0mph /  4.8km/h 5.0mph /  8km/h 71% 0.00in /  0mm 0 W/m2
01:16 22.6 °F /  -5.2 °C 14.6 °F /  -9.7 °C 29.76in /  1007.7hPa Calm   5.0mph /  8km/h 71% 0.00in /  0mm 0 W/m2
01:21 22.7 °F /  -5.2 °C 15.0 °F /  -9.4 °C 29.76in /  1007.7hPa Calm   4.0mph /  6.4km/h 72% 0.00in /  0mm 0 W/m2
01:26 22.9 °F /  -5.1 °C 15.2 °F /  -9.3 °C 29.75in /  1007.3hPa Calm   4.0mph /  6.4km/h 72% 0.00in /  0mm 0 W/m2
01:31 23.2 °F /  -4.9 °C 15.2 °F /  -9.3 °C 29.75in /  1007.3hPa SSW 3.0mph /  4.8km/h 4.0mph /  6.4km/h 71% 0.00in /  0mm 0 W/m2
01:36 23.3 °F /  -4.8 °C 15.3 °F /  -9.3 °C 29.75in /  1007.3hPa Calm   4.0mph /  6.4km/h 71% 0.00in /  0mm 0 W/m2
01:41 23.2 °F /  -4.9 °C 15.2 °F /  -9.3 °C 29.75in /  1007.3hPa SW 2.0mph /  3.2km/h 4.0mph /  6.4km/h 71% 0.00in /  0mm 0 W/m2
01:46 23.4 °F /  -4.8 °C 15.4 °F /  -9.2 °C 29.74in /  1007hPa SW 1.0mph /  1.6km/h 4.0mph /  6.4km/h 71% 0.00in /  0mm 0 W/m2
01:51 23.4 °F /  -4.8 °C 15.4 °F /  -9.2 °C 29.74in /  1007hPa Calm   4.0mph /  6.4km/h 71% 0.00in /  0mm 0 W/m2
01:56 23.4 °F /  -4.8 °C 15.4 °F /  -9.2 °C 29.74in /  1007hPa SW 3.0mph /  4.8km/h 5.0mph /  8km/h 71% 0.00in /  0mm 0 W/m2
02:01 23.7 °F /  -4.6 °C 15.7 °F /  -9.1 °C 29.74in /  1007hPa SSW 4.0mph /  6.4km/h 5.0mph /  8km/h 71% 0.00in /  0mm 0 W/m2
02:06 24.1 °F /  -4.4 °C 16.1 °F /  -8.8 °C 29.74in /  1007hPa SSW 4.0mph /  6.4km/h 5.0mph /  8km/h 71% 0.00in /  0mm 0 W/m2
02:11 24.3 °F /  -4.3 °C 15.9 °F /  -8.9 °C 29.73in /  1006.7hPa Calm   5.0mph /  8km/h 70% 0.00in /  0mm 0 W/m2
02:16 24.1 °F /  -4.4 °C 15.4 °F /  -9.2 °C 29.73in /  1006.7hPa Calm   5.0mph /  8km/h 69% 0.00in /  0mm 0 W/m2
02:21 23.9 °F /  -4.5 °C 15.5 °F /  -9.2 °C 29.73in /  1006.7hPa SSW 4.0mph /  6.4km/h 5.0mph /  8km/h 70% 0.00in /  0mm 0 W/m2
02:26 24.0 °F /  -4.4 °C 16.0 °F /  -8.9 °C 29.73in /  1006.7hPa SSW 5.0mph /  8km/h 5.0mph /  8km/h 71% 0.00in /  0mm 0 W/m2
02:31 24.4 °F /  -4.2 °C 16.3 °F /  -8.7 °C 29.73in /  1006.7hPa SSW 4.0mph /  6.4km/h 5.0mph /  8km/h 71% 0.00in /  0mm 0 W/m2
02:36 24.8 °F /  -4 °C 16.4 °F /  -8.7 °C 29.72in /  1006.3hPa SSW 4.0mph /  6.4km/h 5.0mph /  8km/h 70% 0.00in /  0mm 0 W/m2
02:41 25.0 °F /  -3.9 °C 16.6 °F /  -8.6 °C 29.72in /  1006.3hPa SSW 4.0mph /  6.4km/h 6.0mph /  9.7km/h 70% 0.00in /  0mm 0 W/m2
02:46 25.2 °F /  -3.8 °C 16.8 °F /  -8.4 °C 29.72in /  1006.3hPa Calm   6.0mph /  9.7km/h 70% 0.00in /  0mm 0 W/m2
02:51 25.0 °F /  -3.9 °C 16.3 °F /  -8.7 °C 29.72in /  1006.3hPa SSW 1.0mph /  1.6km/h 5.0mph /  8km/h 69% 0.00in /  0mm 0 W/m2
02:56 24.9 °F /  -3.9 °C 16.5 °F /  -8.6 °C 29.72in /  1006.3hPa SSW 4.0mph /  6.4km/h 7.0mph /  11.3km/h 70% 0.00in /  0mm 0 W/m2
03:01 25.0 °F /  -3.9 °C 16.6 °F /  -8.6 °C 29.71in /  1006hPa SSW 5.0mph /  8km/h 7.0mph /  11.3km/h 70% 0.00in /  0mm 0 W/m2
03:06 25.2 °F /  -3.8 °C 16.8 °F /  -8.4 °C 29.71in /  1006hPa SSW 4.0mph /  6.4km/h 6.0mph /  9.7km/h 70% 0.00in /  0mm 0 W/m2
03:11 25.1 °F /  -3.8 °C 16.4 °F /  -8.7 °C 29.71in /  1006hPa SSW 2.0mph /  3.2km/h 6.0mph /  9.7km/h 69% 0.00in /  0mm 0 W/m2
03:16 25.0 °F /  -3.9 °C 16.6 °F /  -8.6 °C 29.71in /  1006hPa SSW 4.0mph /  6.4km/h 6.0mph /  9.7km/h 70% 0.00in /  0mm 0 W/m2
03:21 25.4 °F /  -3.7 °C 17.0 °F /  -8.3 °C 29.70in /  1005.6hPa SSW 3.0mph /  4.8km/h 6.0mph /  9.7km/h 70% 0.00in /  0mm 0 W/m2
03:26 25.5 °F /  -3.6 °C 16.7 °F /  -8.5 °C 29.70in /  1005.6hPa South 2.0mph /  3.2km/h 5.0mph /  8km/h 69% 0.00in /  0mm 0 W/m2
03:31 24.7 °F /  -4.1 °C 15.3 °F /  -9.3 °C 29.70in /  1005.6hPa Calm   5.0mph /  8km/h 67% 0.00in /  0mm 0 W/m2
03:36 23.3 °F /  -4.8 °C 14.3 °F /  -9.8 °C 29.70in /  1005.6hPa Calm   3.0mph /  4.8km/h 68% 0.00in /  0mm 0 W/m2
03:41 22.3 °F /  -5.4 °C 14.3 °F /  -9.8 °C 29.70in /  1005.6hPa Calm     71% 0.00in /  0mm 0 W/m2
03:46 21.8 °F /  -5.7 °C 14.5 °F /  -9.7 °C 29.69in /  1005.3hPa Calm   2.0mph /  3.2km/h 73% 0.00in /  0mm 0 W/m2
03:51 21.3 °F /  -5.9 °C 14.0 °F /  -10 °C 29.69in /  1005.3hPa Calm   3.0mph /  4.8km/h 73% 0.00in /  0mm 0 W/m2
03:56 21.0 °F /  -6.1 °C 14.0 °F /  -10 °C 29.68in /  1005hPa Calm   3.0mph /  4.8km/h 74% 0.00in /  0mm 0 W/m2
04:01 20.8 °F /  -6.2 °C 14.1 °F /  -9.9 °C 29.68in /  1005hPa Calm   3.0mph /  4.8km/h 75% 0.00in /  0mm 0 W/m2
04:06 20.7 °F /  -6.3 °C 14.3 °F /  -9.8 °C 29.68in /  1005hPa Calm   1.0mph /  1.6km/h 76% 0.00in /  0mm 0 W/m2
04:11 20.9 °F /  -6.2 °C 14.8 °F /  -9.6 °C 29.67in /  1004.6hPa SSE 2.0mph /  3.2km/h 2.0mph /  3.2km/h 77% 0.00in /  0mm 0 W/m2
04:16 21.6 °F /  -5.8 °C 15.2 °F /  -9.3 °C 29.67in /  1004.6hPa SSW 4.0mph /  6.4km/h 5.0mph /  8km/h 76% 0.00in /  0mm 0 W/m2
04:21 22.6 °F /  -5.2 °C 16.2 °F /  -8.8 °C 29.68in /  1005hPa Calm   6.0mph /  9.7km/h 76% 0.00in /  0mm 0 W/m2
04:26 23.5 °F /  -4.7 °C 16.4 °F /  -8.7 °C 29.67in /  1004.6hPa Calm   6.0mph /  9.7km/h 74% 0.00in /  0mm 0 W/m2
04:31 24.1 °F /  -4.4 °C 16.7 °F /  -8.5 °C 29.67in /  1004.6hPa Calm   4.0mph /  6.4km/h 73% 0.00in /  0mm 0 W/m2
04:36 24.4 °F /  -4.2 °C 16.7 °F /  -8.5 °C 29.67in /  1004.6hPa South 3.0mph /  4.8km/h 4.0mph /  6.4km/h 72% 0.00in /  0mm 0 W/m2
04:41 24.8 °F /  -4 °C 16.7 °F /  -8.5 °C 29.66in /  1004.3hPa South 2.0mph /  3.2km/h 5.0mph /  8km/h 71% 0.00in /  0mm 0 W/m2
04:46 24.8 °F /  -4 °C 16.4 °F /  -8.7 °C 29.66in /  1004.3hPa South 3.0mph /  4.8km/h 5.0mph /  8km/h 70% 0.00in /  0mm 0 W/m2
04:51 24.4 °F /  -4.2 °C 16.0 °F /  -8.9 °C 29.66in /  1004.3hPa Calm   5.0mph /  8km/h 70% 0.00in /  0mm 0 W/m2
04:56 24.0 °F /  -4.4 °C 15.6 °F /  -9.1 °C 29.66in /  1004.3hPa Calm   5.0mph /  8km/h 70% 0.00in /  0mm 0 W/m2
05:01 22.9 °F /  -5.1 °C 16.5 °F /  -8.6 °C 29.66in /  1004.3hPa Calm   4.0mph /  6.4km/h 76% 0.00in /  0mm 0 W/m2
05:06 21.8 °F /  -5.7 °C 14.2 °F /  -9.9 °C 29.66in /  1004.3hPa SSE 2.0mph /  3.2km/h 5.0mph /  8km/h 72% 0.00in /  0mm 0 W/m2
05:11 21.5 °F /  -5.8 °C 14.2 °F /  -9.9 °C 29.66in /  1004.3hPa SSE 3.0mph /  4.8km/h 5.0mph /  8km/h 73% 0.00in /  0mm 0 W/m2
05:16 21.3 °F /  -5.9 °C 14.3 °F /  -9.8 °C 29.66in /  1004.3hPa South 3.0mph /  4.8km/h 4.0mph /  6.4km/h 74% 0.00in /  0mm 0 W/m2
05:21 21.3 °F /  -5.9 °C 14.6 °F /  -9.7 °C 29.65in /  1003.9hPa Calm   4.0mph /  6.4km/h 75% 0.00in /  0mm 0 W/m2
05:26 21.2 °F /  -6 °C 14.5 °F /  -9.7 °C 29.65in /  1003.9hPa SSE 3.0mph /  4.8km/h 3.0mph /  4.8km/h 75% 0.00in /  0mm 0 W/m2
05:31 21.2 °F /  -6 °C 14.5 °F /  -9.7 °C 29.65in /  1003.9hPa Calm   4.0mph /  6.4km/h 75% 0.00in /  0mm 0 W/m2
05:36 21.6 °F /  -5.8 °C 14.9 °F /  -9.5 °C 29.65in /  1003.9hPa Calm   4.0mph /  6.4km/h 75% 0.00in /  0mm 0 W/m2
05:41 21.7 °F /  -5.7 °C 15.0 °F /  -9.4 °C 29.64in /  1003.6hPa SSE 3.0mph /  4.8km/h 5.0mph /  8km/h 75% 0.00in /  0mm 0 W/m2
05:46 22.1 °F /  -5.5 °C 15.4 °F /  -9.2 °C 29.64in /  1003.6hPa South 3.0mph /  4.8km/h 5.0mph /  8km/h 75% 0.00in /  0mm 0 W/m2
05:51 22.8 °F /  -5.1 °C 15.8 °F /  -9 °C 29.64in /  1003.6hPa South 5.0mph /  8km/h 6.0mph /  9.7km/h 74% 0.00in /  0mm 0 W/m2
05:56 23.4 °F /  -4.8 °C 16.0 °F /  -8.9 °C 29.64in /  1003.6hPa South 4.0mph /  6.4km/h 6.0mph /  9.7km/h 73% 0.00in /  0mm 0 W/m2
06:01 23.4 °F /  -4.8 °C 15.7 °F /  -9.1 °C 29.64in /  1003.6hPa Calm   6.0mph /  9.7km/h 72% 0.00in /  0mm 0 W/m2
06:06 23.0 °F /  -5 °C 15.3 °F /  -9.3 °C 29.64in /  1003.6hPa Calm   5.0mph /  8km/h 72% 0.00in /  0mm 0 W/m2
06:11 23.2 °F /  -4.9 °C 15.8 °F /  -9 °C 29.64in /  1003.6hPa SSE 3.0mph /  4.8km/h 4.0mph /  6.4km/h 73% 0.00in /  0mm 0 W/m2
06:16 24.1 °F /  -4.4 °C 16.7 °F /  -8.5 °C 29.63in /  1003.3hPa South 3.0mph /  4.8km/h 5.0mph /  8km/h 73% 0.00in /  0mm 0 W/m2
06:21 25.0 °F /  -3.9 °C 16.9 °F /  -8.4 °C 29.63in /  1003.3hPa Calm   5.0mph /  8km/h 71% 0.00in /  0mm 0 W/m2
06:26 25.3 °F /  -3.7 °C 16.9 °F /  -8.4 °C 29.62in /  1002.9hPa Calm   5.0mph /  8km/h 70% 0.00in /  0mm 0 W/m2
06:31 25.5 °F /  -3.6 °C 16.7 °F /  -8.5 °C 29.62in /  1002.9hPa Calm   5.0mph /  8km/h 69% 0.00in /  0mm 0 W/m2
06:36 25.7 °F /  -3.5 °C 16.9 °F /  -8.4 °C 29.62in /  1002.9hPa Calm   5.0mph /  8km/h 69% 0.00in /  0mm 0 W/m2
06:41 26.1 °F /  -3.3 °C 17.3 °F /  -8.2 °C 29.63in /  1003.3hPa WSW 4.0mph /  6.4km/h 6.0mph /  9.7km/h 69% 0.00in /  0mm 0 W/m2
06:46 26.6 °F /  -3 °C 17.1 °F /  -8.3 °C 29.62in /  1002.9hPa SW 3.0mph /  4.8km/h 6.0mph /  9.7km/h 67% 0.00in /  0mm 0 W/m2
06:51 26.3 °F /  -3.2 °C 16.8 °F /  -8.4 °C 29.62in /  1002.9hPa Calm   6.0mph /  9.7km/h 67% 0.00in /  0mm 0 W/m2
06:56 25.9 °F /  -3.4 °C 16.4 °F /  -8.7 °C 29.62in /  1002.9hPa Calm   6.0mph /  9.7km/h 67% 0.00in /  0mm 0 W/m2
07:01 25.7 °F /  -3.5 °C 16.6 °F /  -8.6 °C 29.61in /  1002.6hPa Calm   2.0mph /  3.2km/h 68% 0.00in /  0mm 0 W/m2
07:06 25.3 °F /  -3.7 °C 16.2 °F /  -8.8 °C 29.62in /  1002.9hPa Calm   1.0mph /  1.6km/h 68% 0.00in /  0mm 0 W/m2
07:11 25.1 °F /  -3.8 °C 16.4 °F /  -8.7 °C 29.61in /  1002.6hPa Calm   1.0mph /  1.6km/h 69% 0.00in /  0mm 0 W/m2
07:16 24.9 °F /  -3.9 °C 16.2 °F /  -8.8 °C 29.61in /  1002.6hPa SSW 3.0mph /  4.8km/h 4.0mph /  6.4km/h 69% 0.00in /  0mm 0 W/m2
07:21 24.8 °F /  -4 °C 16.1 °F /  -8.8 °C 29.60in /  1002.3hPa SSW 1.0mph /  1.6km/h 4.0mph /  6.4km/h 69% 0.00in /  0mm 0 W/m2
07:26 24.7 °F /  -4.1 °C 16.0 °F /  -8.9 °C 29.60in /  1002.3hPa Calm   4.0mph /  6.4km/h 69% 0.00in /  0mm 0 W/m2
07:31 24.6 °F /  -4.1 °C 15.9 °F /  -8.9 °C 29.60in /  1002.3hPa Calm   4.0mph /  6.4km/h 69% 0.00in /  0mm 0 W/m2
07:36 24.6 °F /  -4.1 °C 16.2 °F /  -8.8 °C 29.60in /  1002.3hPa SSW 2.0mph /  3.2km/h 4.0mph /  6.4km/h 70% 0.00in /  0mm 0 W/m2
07:41 24.7 °F /  -4.1 °C 16.3 °F /  -8.7 °C 29.60in /  1002.3hPa Calm   4.0mph /  6.4km/h 70% 0.00in /  0mm 0 W/m2
07:46 24.9 °F /  -3.9 °C 16.5 °F /  -8.6 °C 29.60in /  1002.3hPa Calm   4.0mph /  6.4km/h 70% 0.00in /  0mm 5 W/m2
07:51 25.0 °F /  -3.9 °C 16.3 °F /  -8.7 °C 29.60in /  1002.3hPa Calm   1.0mph /  1.6km/h 69% 0.00in /  0mm 7 W/m2
07:56 25.1 °F /  -3.8 °C 16.4 °F /  -8.7 °C 29.60in /  1002.3hPa Calm   4.0mph /  6.4km/h 69% 0.00in /  0mm 9 W/m2
08:01 25.3 °F /  -3.7 °C 16.5 °F /  -8.6 °C 29.60in /  1002.3hPa Calm   4.0mph /  6.4km/h 69% 0.00in /  0mm 11 W/m2
08:06 25.7 °F /  -3.5 °C 16.6 °F /  -8.6 °C 29.60in /  1002.3hPa Calm   4.0mph /  6.4km/h 68% 0.00in /  0mm 12 W/m2
08:11 25.9 °F /  -3.4 °C 16.4 °F /  -8.7 °C 29.60in /  1002.3hPa Calm   2.0mph /  3.2km/h 67% 0.00in /  0mm 16 W/m2
08:16 26.1 °F /  -3.3 °C 17.0 °F /  -8.3 °C 29.60in /  1002.3hPa Calm     68% 0.00in /  0mm 18 W/m2
08:21 26.2 °F /  -3.2 °C 16.7 °F /  -8.5 °C 29.60in /  1002.3hPa Calm     67% 0.00in /  0mm 19 W/m2
08:26 26.3 °F /  -3.2 °C 16.8 °F /  -8.4 °C 29.60in /  1002.3hPa Calm     67% 0.00in /  0mm 30 W/m2
08:31 26.5 °F /  -3.1 °C 16.7 °F /  -8.5 °C 29.60in /  1002.3hPa Calm     66% 0.00in /  0mm 40 W/m2
08:36 26.7 °F /  -2.9 °C 16.9 °F /  -8.4 °C 29.59in /  1001.9hPa Calm     66% 0.00in /  0mm 49 W/m2
08:41 27.1 °F /  -2.7 °C 17.2 °F /  -8.2 °C 29.59in /  1001.9hPa Calm   5.0mph /  8km/h 66% 0.00in /  0mm 62 W/m2
08:46 27.5 °F /  -2.5 °C 17.3 °F /  -8.2 °C 29.59in /  1001.9hPa SW 3.0mph /  4.8km/h 5.0mph /  8km/h 65% 0.00in /  0mm 77 W/m2
08:51 27.9 °F /  -2.3 °C 17.3 °F /  -8.2 °C 29.59in /  1001.9hPa Calm   5.0mph /  8km/h 64% 0.00in /  0mm 90 W/m2
08:56 27.5 °F /  -2.5 °C 16.9 °F /  -8.4 °C 29.59in /  1001.9hPa Calm   4.0mph /  6.4km/h 64% 0.00in /  0mm 98 W/m2
09:01 27.3 °F /  -2.6 °C 17.1 °F /  -8.3 °C 29.59in /  1001.9hPa Calm     65% 0.00in /  0mm 109 W/m2
09:06 27.2 °F /  -2.7 °C 17.3 °F /  -8.2 °C 29.59in /  1001.9hPa Calm     66% 0.00in /  0mm 118 W/m2
09:11 27.3 °F /  -2.6 °C 17.4 °F /  -8.1 °C 29.59in /  1001.9hPa Calm     66% 0.00in /  0mm 118 W/m2
09:17 27.6 °F /  -2.4 °C 17.7 °F /  -7.9 °C 29.59in /  1001.9hPa Calm     66% 0.00in /  0mm 120 W/m2
09:22 27.9 °F /  -2.3 °C 18.0 °F /  -7.8 °C 29.59in /  1001.9hPa Calm     66% 0.00in /  0mm 149 W/m2
09:27 28.4 °F /  -2 °C 18.5 °F /  -7.5 °C 29.58in /  1001.6hPa Calm     66% 0.00in /  0mm 171 W/m2
09:32 28.8 °F /  -1.8 °C 18.5 °F /  -7.5 °C 29.58in /  1001.6hPa Calm     65% 0.00in /  0mm 176 W/m2
09:37 29.1 °F /  -1.6 °C 18.8 °F /  -7.3 °C 29.59in /  1001.9hPa Calm     65% 0.00in /  0mm 192 W/m2
09:42 29.3 °F /  -1.5 °C 18.6 °F /  -7.4 °C 29.59in /  1001.9hPa WSW 4.0mph /  6.4km/h 5.0mph /  8km/h 64% 0.00in /  0mm 202 W/m2
09:47 29.5 °F /  -1.4 °C 19.2 °F /  -7.1 °C 29.59in /  1001.9hPa Calm   5.0mph /  8km/h 65% 0.00in /  0mm 220 W/m2
09:52 29.7 °F /  -1.3 °C 19.0 °F /  -7.2 °C 29.59in /  1001.9hPa West 5.0mph /  8km/h 6.0mph /  9.7km/h 64% 0.00in /  0mm 243 W/m2
09:57 30.0 °F /  -1.1 °C 19.3 °F /  -7.1 °C 29.58in /  1001.6hPa West 2.0mph /  3.2km/h 6.0mph /  9.7km/h 64% 0.00in /  0mm 274 W/m2
10:02 30.4 °F /  -0.9 °C 19.7 °F /  -6.8 °C 29.58in /  1001.6hPa WSW 3.0mph /  4.8km/h 5.0mph /  8km/h 64% 0.00in /  0mm 322 W/m2
10:07 30.9 °F /  -0.6 °C 20.1 °F /  -6.6 °C 29.59in /  1001.9hPa Calm   5.0mph /  8km/h 64% 0.00in /  0mm 345 W/m2
10:12 31.6 °F /  -0.2 °C 20.4 °F /  -6.4 °C 29.59in /  1001.9hPa Calm   4.0mph /  6.4km/h 63% 0.00in /  0mm 352 W/m2
10:17 32.6 °F /  0.3 °C 21.0 °F /  -6.1 °C 29.58in /  1001.6hPa Calm   1.0mph /  1.6km/h 62% 0.00in /  0mm 357 W/m2
10:22 33.3 °F /  0.7 °C 21.3 °F /  -5.9 °C 29.58in /  1001.6hPa Calm   3.0mph /  4.8km/h 61% 0.00in /  0mm 357 W/m2
10:27 33.5 °F /  0.8 °C 21.1 °F /  -6.1 °C 29.58in /  1001.6hPa Calm   3.0mph /  4.8km/h 60% 0.00in /  0mm 369 W/m2
10:32 33.8 °F /  1 °C 21.4 °F /  -5.9 °C 29.58in /  1001.6hPa Calm     60% 0.00in /  0mm 381 W/m2
10:37 34.0 °F /  1.1 °C 21.6 °F /  -5.8 °C 29.58in /  1001.6hPa Calm   1.0mph /  1.6km/h 60% 0.00in /  0mm 390 W/m2
10:42 33.9 °F /  1.1 °C 22.2 °F /  -5.4 °C 29.58in /  1001.6hPa WSW 4.0mph /  6.4km/h 6.0mph /  9.7km/h 62% 0.00in /  0mm 399 W/m2
10:47 34.0 °F /  1.1 °C 22.7 °F /  -5.2 °C 29.58in /  1001.6hPa West 5.0mph /  8km/h 6.0mph /  9.7km/h 63% 0.00in /  0mm 408 W/m2
10:52 34.4 °F /  1.3 °C 23.1 °F /  -4.9 °C 29.58in /  1001.6hPa West 5.0mph /  8km/h 6.0mph /  9.7km/h 63% 0.00in /  0mm 417 W/m2
10:57 34.9 °F /  1.6 °C 23.6 °F /  -4.7 °C 29.58in /  1001.6hPa WSW 6.0mph /  9.7km/h 7.0mph /  11.3km/h 63% 0.00in /  0mm 425 W/m2
11:02 35.2 °F /  1.8 °C 23.5 °F /  -4.7 °C 29.58in /  1001.6hPa WSW 4.0mph /  6.4km/h 7.0mph /  11.3km/h 62% 0.00in /  0mm 434 W/m2
11:07 35.3 °F /  1.8 °C 24.0 °F /  -4.4 °C 29.57in /  1001.2hPa WSW 6.0mph /  9.7km/h 7.0mph /  11.3km/h 63% 0.00in /  0mm 443 W/m2
11:12 35.5 °F /  1.9 °C 24.1 °F /  -4.4 °C 29.58in /  1001.6hPa WSW 4.0mph /  6.4km/h 7.0mph /  11.3km/h 63% 0.00in /  0mm 448 W/m2
11:17 35.8 °F /  2.1 °C 24.4 °F /  -4.2 °C 29.57in /  1001.2hPa WSW 3.0mph /  4.8km/h 6.0mph /  9.7km/h 63% 0.00in /  0mm 457 W/m2
11:22 36.1 °F /  2.3 °C 24.3 °F /  -4.3 °C 29.57in /  1001.2hPa WSW 4.0mph /  6.4km/h 6.0mph /  9.7km/h 62% 0.00in /  0mm 464 W/m2
11:27 36.3 °F /  2.4 °C 24.5 °F /  -4.2 °C 29.57in /  1001.2hPa Calm   6.0mph /  9.7km/h 62% 0.00in /  0mm 473 W/m2
11:32 36.9 °F /  2.7 °C 24.7 °F /  -4.1 °C 29.57in /  1001.2hPa SW 4.0mph /  6.4km/h 6.0mph /  9.7km/h 61% 0.00in /  0mm 482 W/m2
11:37 37.5 °F /  3.1 °C 25.3 °F /  -3.7 °C 29.57in /  1001.2hPa SW 4.0mph /  6.4km/h 6.0mph /  9.7km/h 61% 0.00in /  0mm 487 W/m2
11:42 37.6 °F /  3.1 °C 25.4 °F /  -3.7 °C 29.58in /  1001.6hPa WSW 4.0mph /  6.4km/h 6.0mph /  9.7km/h 61% 0.00in /  0mm 494 W/m2
11:47 37.4 °F /  3 °C 25.2 °F /  -3.8 °C 29.58in /  1001.6hPa WSW 4.0mph /  6.4km/h 6.0mph /  9.7km/h 61% 0.00in /  0mm 497 W/m2
11:52 37.6 °F /  3.1 °C 25.7 °F /  -3.5 °C 29.58in /  1001.6hPa WSW 6.0mph /  9.7km/h 7.0mph /  11.3km/h 62% 0.00in /  0mm 503 W/m2
11:57 37.9 °F /  3.3 °C 26.0 °F /  -3.3 °C 29.57in /  1001.2hPa West 3.0mph /  4.8km/h 7.0mph /  11.3km/h 62% 0.00in /  0mm 504 W/m2
12:02 38.2 °F /  3.4 °C 26.7 °F /  -2.9 °C 29.57in /  1001.2hPa West 4.0mph /  6.4km/h 7.0mph /  11.3km/h 63% 0.00in /  0mm 510 W/m2
12:07 38.3 °F /  3.5 °C 26.8 °F /  -2.9 °C 29.57in /  1001.2hPa West 5.0mph /  8km/h 7.0mph /  11.3km/h 63% 0.00in /  0mm 515 W/m2
12:12 38.2 °F /  3.4 °C 26.7 °F /  -2.9 °C 29.57in /  1001.2hPa West 4.0mph /  6.4km/h 7.0mph /  11.3km/h 63% 0.00in /  0mm 519 W/m2
12:17 38.5 °F /  3.6 °C 27.0 °F /  -2.8 °C 29.57in /  1001.2hPa West 4.0mph /  6.4km/h 7.0mph /  11.3km/h 63% 0.00in /  0mm 524 W/m2
12:22 38.7 °F /  3.7 °C 27.6 °F /  -2.4 °C 29.56in /  1000.9hPa West 5.0mph /  8km/h 6.0mph /  9.7km/h 64% 0.00in /  0mm 527 W/m2
12:27 39.0 °F /  3.9 °C 27.5 °F /  -2.5 °C 29.56in /  1000.9hPa WNW 4.0mph /  6.4km/h 6.0mph /  9.7km/h 63% 0.00in /  0mm 529 W/m2
12:32 39.2 °F /  4 °C 27.7 °F /  -2.4 °C 29.56in /  1000.9hPa West 5.0mph /  8km/h 6.0mph /  9.7km/h 63% 0.00in /  0mm 531 W/m2
12:37 39.3 °F /  4.1 °C 28.1 °F /  -2.2 °C 29.56in /  1000.9hPa West 5.0mph /  8km/h 7.0mph /  11.3km/h 64% 0.00in /  0mm 534 W/m2
12:42 39.7 °F /  4.3 °C 28.5 °F /  -1.9 °C 29.56in /  1000.9hPa West 4.0mph /  6.4km/h 7.0mph /  11.3km/h 64% 0.00in /  0mm 536 W/m2
12:47 39.9 °F /  4.4 °C 28.7 °F /  -1.8 °C 29.55in /  1000.6hPa West 3.0mph /  4.8km/h 5.0mph /  8km/h 64% 0.00in /  0mm 540 W/m2
12:52 40.1 °F /  4.5 °C 28.9 °F /  -1.7 °C 29.55in /  1000.6hPa West 2.0mph /  3.2km/h 6.0mph /  9.7km/h 64% 0.00in /  0mm 538 W/m2
12:57 40.3 °F /  4.6 °C 28.7 °F /  -1.8 °C 29.55in /  1000.6hPa Calm   6.0mph /  9.7km/h 63% 0.00in /  0mm 540 W/m2
13:02 40.7 °F /  4.8 °C 29.1 °F /  -1.6 °C 29.55in /  1000.6hPa Calm   5.0mph /  8km/h 63% 0.00in /  0mm 541 W/m2
13:07 41.0 °F /  5 °C 29.4 °F /  -1.4 °C 29.55in /  1000.6hPa Calm   5.0mph /  8km/h 63% 0.00in /  0mm 541 W/m2
13:12 41.2 °F /  5.1 °C 29.2 °F /  -1.6 °C 29.54in /  1000.2hPa WNW 4.0mph /  6.4km/h 5.0mph /  8km/h 62% 0.00in /  0mm 529 W/m2
13:17 41.3 °F /  5.2 °C 29.6 °F /  -1.3 °C 29.54in /  1000.2hPa West 5.0mph /  8km/h 6.0mph /  9.7km/h 63% 0.00in /  0mm 552 W/m2
13:22 41.3 °F /  5.2 °C 29.6 °F /  -1.3 °C 29.54in /  1000.2hPa NW 6.0mph /  9.7km/h 7.0mph /  11.3km/h 63% 0.00in /  0mm 543 W/m2
13:27 41.3 °F /  5.2 °C 29.6 °F /  -1.3 °C 29.54in /  1000.2hPa WNW 6.0mph /  9.7km/h 7.0mph /  11.3km/h 63% 0.00in /  0mm 471 W/m2
13:32 41.5 °F /  5.3 °C 30.2 °F /  -1 °C 29.54in /  1000.2hPa West 2.0mph /  3.2km/h 7.0mph /  11.3km/h 64% 0.00in /  0mm 497 W/m2
13:37 41.7 °F /  5.4 °C 29.6 °F /  -1.3 °C 29.54in /  1000.2hPa West 4.0mph /  6.4km/h 6.0mph /  9.7km/h 62% 0.00in /  0mm 399 W/m2
13:42 41.7 °F /  5.4 °C 30.0 °F /  -1.1 °C 29.54in /  1000.2hPa West 5.0mph /  8km/h 8.0mph /  12.9km/h 63% 0.00in /  0mm 459 W/m2
13:47 41.9 °F /  5.5 °C 30.2 °F /  -1 °C 29.53in /  999.9hPa West 6.0mph /  9.7km/h 8.0mph /  12.9km/h 63% 0.00in /  0mm 513 W/m2
13:52 42.1 °F /  5.6 °C 30.4 °F /  -0.9 °C 29.53in /  999.9hPa West 5.0mph /  8km/h 7.0mph /  11.3km/h 63% 0.00in /  0mm 448 W/m2
13:57 42.1 °F /  5.6 °C 30.4 °F /  -0.9 °C 29.53in /  999.9hPa West 6.0mph /  9.7km/h 8.0mph /  12.9km/h 63% 0.00in /  0mm 527 W/m2
14:02 42.3 °F /  5.7 °C 30.6 °F /  -0.8 °C 29.53in /  999.9hPa WNW 7.0mph /  11.3km/h 8.0mph /  12.9km/h 63% 0.00in /  0mm 543 W/m2
14:07 42.4 °F /  5.8 °C 30.7 °F /  -0.7 °C 29.53in /  999.9hPa West 7.0mph /  11.3km/h 8.0mph /  12.9km/h 63% 0.00in /  0mm 487 W/m2
14:12 42.1 °F /  5.6 °C 30.0 °F /  -1.1 °C 29.53in /  999.9hPa West 8.0mph /  12.9km/h 9.0mph /  14.5km/h 62% 0.00in /  0mm 364 W/m2
14:17 41.7 °F /  5.4 °C 30.0 °F /  -1.1 °C 29.52in /  999.5hPa West 8.0mph /  12.9km/h 9.0mph /  14.5km/h 63% 0.00in /  0mm 329 W/m2
14:22 41.7 °F /  5.4 °C 30.4 °F /  -0.9 °C 29.52in /  999.5hPa West 7.0mph /  11.3km/h 9.0mph /  14.5km/h 64% 0.00in /  0mm 237 W/m2
14:27 41.6 °F /  5.3 °C 29.9 °F /  -1.2 °C 29.52in /  999.5hPa West 6.0mph /  9.7km/h 9.0mph /  14.5km/h 63% 0.00in /  0mm 267 W/m2
14:32 41.6 °F /  5.3 °C 30.3 °F /  -0.9 °C 29.52in /  999.5hPa West 5.0mph /  8km/h 8.0mph /  12.9km/h 64% 0.00in /  0mm 276 W/m2
14:37 41.6 °F /  5.3 °C 30.3 °F /  -0.9 °C 29.52in /  999.5hPa West 5.0mph /  8km/h 8.0mph /  12.9km/h 64% 0.00in /  0mm 250 W/m2
14:42 41.6 °F /  5.3 °C 30.7 °F /  -0.7 °C 29.52in /  999.5hPa WNW 4.0mph /  6.4km/h 7.0mph /  11.3km/h 65% 0.00in /  0mm 253 W/m2
14:47 41.7 °F /  5.4 °C 30.8 °F /  -0.7 °C 29.52in /  999.5hPa West 6.0mph /  9.7km/h 7.0mph /  11.3km/h 65% 0.00in /  0mm 236 W/m2
14:52 41.6 °F /  5.3 °C 30.3 °F /  -0.9 °C 29.52in /  999.5hPa West 6.0mph /  9.7km/h 8.0mph /  12.9km/h 64% 0.00in /  0mm 221 W/m2
14:53 41.7 °F /  5.4 °C 30.8 °F /  -0.7 °C 29.52in /  999.5hPa West 5.0mph /  8km/h 8.0mph /  12.9km/h 65% 0.00in /  0mm 223 W/m2
14:58 41.5 °F /  5.3 °C 30.6 °F /  -0.8 °C 29.51in /  999.2hPa West 6.0mph /  9.7km/h 8.0mph /  12.9km/h 65% 0.00in /  0mm 225 W/m2
15:03 41.5 °F /  5.3 °C 30.6 °F /  -0.8 °C 29.51in /  999.2hPa West 7.0mph /  11.3km/h 8.0mph /  12.9km/h 65% 0.00in /  0mm 225 W/m2
15:08 41.5 °F /  5.3 °C 30.6 °F /  -0.8 °C 29.51in /  999.2hPa West 7.0mph /  11.3km/h 8.0mph /  12.9km/h 65% 0.00in /  0mm 225 W/m2
15:13 41.6 °F /  5.3 °C 30.7 °F /  -0.7 °C 29.51in /  999.2hPa West 6.0mph /  9.7km/h 8.0mph /  12.9km/h 65% 0.00in /  0mm 227 W/m2
15:18 41.5 °F /  5.3 °C 31.0 °F /  -0.6 °C 29.51in /  999.2hPa West 5.0mph /  8km/h 8.0mph /  12.9km/h 66% 0.00in /  0mm 218 W/m2
15:28 41.5 °F /  5.3 °C 31.0 °F /  -0.6 °C 29.51in /  999.2hPa West 7.0mph /  11.3km/h 8.0mph /  12.9km/h 66% 0.00in /  0mm 199 W/m2
15:33 41.6 °F /  5.3 °C 30.7 °F /  -0.7 °C 29.52in /  999.5hPa West 6.0mph /  9.7km/h 8.0mph /  12.9km/h 65% 0.00in /  0mm 185 W/m2
15:38 41.6 °F /  5.3 °C 30.7 °F /  -0.7 °C 29.51in /  999.2hPa West 8.0mph /  12.9km/h 9.0mph /  14.5km/h 65% 0.00in /  0mm 181 W/m2
15:43 41.4 °F /  5.2 °C 30.9 °F /  -0.6 °C 29.51in /  999.2hPa West 6.0mph /  9.7km/h 9.0mph /  14.5km/h 66% 0.00in /  0mm 176 W/m2
15:48 41.3 °F /  5.2 °C 31.2 °F /  -0.4 °C 29.51in /  999.2hPa West 7.0mph /  11.3km/h 9.0mph /  14.5km/h 67% 0.00in /  0mm 167 W/m2
15:53 41.2 °F /  5.1 °C 31.4 °F /  -0.3 °C 29.51in /  999.2hPa West 6.0mph /  9.7km/h 8.0mph /  12.9km/h 68% 0.00in /  0mm 169 W/m2
15:58 41.2 °F /  5.1 °C 31.4 °F /  -0.3 °C 29.51in /  999.2hPa West 6.0mph /  9.7km/h 8.0mph /  12.9km/h 68% 0.00in /  0mm 160 W/m2
16:03 41.0 °F /  5 °C 31.2 °F /  -0.4 °C 29.51in /  999.2hPa West 7.0mph /  11.3km/h 9.0mph /  14.5km/h 68% 0.00in /  0mm 144 W/m2
16:08 41.0 °F /  5 °C 31.2 °F /  -0.4 °C 29.51in /  999.2hPa West 8.0mph /  12.9km/h 9.0mph /  14.5km/h 68% 0.00in /  0mm 135 W/m2
16:13 40.8 °F /  4.9 °C 31.1 °F /  -0.5 °C 29.51in /  999.2hPa West 7.0mph /  11.3km/h 8.0mph /  12.9km/h 68% 0.00in /  0mm 125 W/m2
16:18 40.6 °F /  4.8 °C 31.2 °F /  -0.4 °C 29.51in /  999.2hPa West 8.0mph /  12.9km/h 8.0mph /  12.9km/h 69% 0.00in /  0mm 121 W/m2
16:23 40.6 °F /  4.8 °C 31.2 °F /  -0.4 °C 29.52in /  999.5hPa West 6.0mph /  9.7km/h 8.0mph /  12.9km/h 69% 0.00in /  0mm 127 W/m2
16:28 40.5 °F /  4.7 °C 31.5 °F /  -0.3 °C 29.52in /  999.5hPa West 6.0mph /  9.7km/h 8.0mph /  12.9km/h 70% 0.00in /  0mm 113 W/m2
16:33 40.5 °F /  4.7 °C 31.1 °F /  -0.5 °C 29.52in /  999.5hPa West 7.0mph /  11.3km/h 8.0mph /  12.9km/h 69% 0.00in /  0mm 116 W/m2
16:38 40.6 °F /  4.8 °C 31.2 °F /  -0.4 °C 29.52in /  999.5hPa West 6.0mph /  9.7km/h 8.0mph /  12.9km/h 69% 0.00in /  0mm 104 W/m2
16:43 40.4 °F /  4.7 °C 31.4 °F /  -0.3 °C 29.52in /  999.5hPa West 5.0mph /  8km/h 7.0mph /  11.3km/h 70% 0.00in /  0mm 95 W/m2
16:48 40.4 °F /  4.7 °C 31.4 °F /  -0.3 °C 29.52in /  999.5hPa West 5.0mph /  8km/h 7.0mph /  11.3km/h 70% 0.00in /  0mm 90 W/m2
16:53 40.4 °F /  4.7 °C 31.4 °F /  -0.3 °C 29.52in /  999.5hPa West 6.0mph /  9.7km/h 8.0mph /  12.9km/h 70% 0.00in /  0mm 86 W/m2
16:58 40.3 °F /  4.6 °C 31.3 °F /  -0.4 °C 29.52in /  999.5hPa West 7.0mph /  11.3km/h 8.0mph /  12.9km/h 70% 0.00in /  0mm 88 W/m2
17:03 40.1 °F /  4.5 °C 31.4 °F /  -0.3 °C 29.52in /  999.5hPa West 7.0mph /  11.3km/h 9.0mph /  14.5km/h 71% 0.00in /  0mm 63 W/m2
17:08 40.1 °F /  4.5 °C 31.4 °F /  -0.3 °C 29.52in /  999.5hPa West 7.0mph /  11.3km/h 9.0mph /  14.5km/h 71% 0.00in /  0mm 42 W/m2
17:13 39.9 °F /  4.4 °C 31.3 °F /  -0.4 °C 29.52in /  999.5hPa West 5.0mph /  8km/h 8.0mph /  12.9km/h 71% 0.00in /  0mm 44 W/m2
17:18 39.8 °F /  4.3 °C 31.2 °F /  -0.4 °C 29.52in /  999.5hPa WSW 7.0mph /  11.3km/h 7.0mph /  11.3km/h 71% 0.00in /  0mm 40 W/m2
17:23 39.6 °F /  4.2 °C 31.3 °F /  -0.4 °C 29.52in /  999.5hPa WSW 4.0mph /  6.4km/h 7.0mph /  11.3km/h 72% 0.00in /  0mm 35 W/m2
17:28 39.4 °F /  4.1 °C 31.1 °F /  -0.5 °C 29.52in /  999.5hPa West 5.0mph /  8km/h 8.0mph /  12.9km/h 72% 0.00in /  0mm 32 W/m2
17:33 39.3 °F /  4.1 °C 31.0 °F /  -0.6 °C 29.52in /  999.5hPa West 4.0mph /  6.4km/h 8.0mph /  12.9km/h 72% 0.00in /  0mm 26 W/m2
17:38 39.4 °F /  4.1 °C 31.1 °F /  -0.5 °C 29.52in /  999.5hPa WSW 5.0mph /  8km/h 7.0mph /  11.3km/h 72% 0.00in /  0mm 21 W/m2
17:43 39.4 °F /  4.1 °C 31.1 °F /  -0.5 °C 29.52in /  999.5hPa West 4.0mph /  6.4km/h 7.0mph /  11.3km/h 72% 0.00in /  0mm 18 W/m2
17:48 39.3 °F /  4.1 °C 32.4 °F /  0.2 °C 29.52in /  999.5hPa West 5.0mph /  8km/h 7.0mph /  11.3km/h 76% 0.00in /  0mm 12 W/m2
17:53 39.2 °F /  4 °C 30.9 °F /  -0.6 °C 29.52in /  999.5hPa West 5.0mph /  8km/h 7.0mph /  11.3km/h 72% 0.00in /  0mm 9 W/m2
17:58 39.3 °F /  4.1 °C 31.0 °F /  -0.6 °C 29.53in /  999.9hPa WNW 5.0mph /  8km/h 8.0mph /  12.9km/h 72% 0.00in /  0mm 7 W/m2
18:03 39.1 °F /  3.9 °C 31.2 °F /  -0.4 °C 29.53in /  999.9hPa West 7.0mph /  11.3km/h 8.0mph /  12.9km/h 73% 0.00in /  0mm 0 W/m2
18:08 39.0 °F /  3.9 °C 31.1 °F /  -0.5 °C 29.53in /  999.9hPa West 4.0mph /  6.4km/h 7.0mph /  11.3km/h 73% 0.00in /  0mm 0 W/m2
18:13 39.0 °F /  3.9 °C 31.1 °F /  -0.5 °C 29.53in /  999.9hPa West 5.0mph /  8km/h 7.0mph /  11.3km/h 73% 0.00in /  0mm 0 W/m2
18:18 38.9 °F /  3.8 °C 31.3 °F /  -0.4 °C 29.53in /  999.9hPa West 6.0mph /  9.7km/h 7.0mph /  11.3km/h 74% 0.00in /  0mm 0 W/m2
18:23 38.6 °F /  3.7 °C 31.0 °F /  -0.6 °C 29.53in /  999.9hPa West 5.0mph /  8km/h 7.0mph /  11.3km/h 74% 0.00in /  0mm 0 W/m2
18:28 38.4 °F /  3.6 °C 31.2 °F /  -0.4 °C 29.54in /  1000.2hPa West 4.0mph /  6.4km/h 7.0mph /  11.3km/h 75% 0.00in /  0mm 0 W/m2
18:33 38.1 °F /  3.4 °C 31.2 °F /  -0.4 °C 29.54in /  1000.2hPa West 4.0mph /  6.4km/h 5.0mph /  8km/h 76% 0.00in /  0mm 0 W/m2
18:38 37.8 °F /  3.2 °C 31.2 °F /  -0.4 °C 29.54in /  1000.2hPa West 4.0mph /  6.4km/h 5.0mph /  8km/h 77% 0.00in /  0mm 0 W/m2
18:43 37.8 °F /  3.2 °C 31.2 °F /  -0.4 °C 29.54in /  1000.2hPa West 4.0mph /  6.4km/h 6.0mph /  9.7km/h 77% 0.00in /  0mm 0 W/m2
18:48 37.9 °F /  3.3 °C 31.3 °F /  -0.4 °C 29.54in /  1000.2hPa West 5.0mph /  8km/h 6.0mph /  9.7km/h 77% 0.00in /  0mm 0 W/m2
18:53 37.9 °F /  3.3 °C 31.3 °F /  -0.4 °C 29.55in /  1000.6hPa WSW 4.0mph /  6.4km/h 6.0mph /  9.7km/h 77% 0.00in /  0mm 0 W/m2
18:58 37.8 °F /  3.2 °C 31.2 °F /  -0.4 °C 29.55in /  1000.6hPa WSW 5.0mph /  8km/h 6.0mph /  9.7km/h 77% 0.00in /  0mm 0 W/m2
19:03 37.6 °F /  3.1 °C 31.0 °F /  -0.6 °C 29.55in /  1000.6hPa West 5.0mph /  8km/h 6.0mph /  9.7km/h 77% 0.00in /  0mm 0 W/m2
19:08 37.4 °F /  3 °C 31.2 °F /  -0.4 °C 29.55in /  1000.6hPa WSW 3.0mph /  4.8km/h 6.0mph /  9.7km/h 78% 0.00in /  0mm 0 W/m2
19:13 37.4 °F /  3 °C 31.2 °F /  -0.4 °C 29.55in /  1000.6hPa West 4.0mph /  6.4km/h 5.0mph /  8km/h 78% 0.00in /  0mm 0 W/m2
19:18 37.5 °F /  3.1 °C 30.9 °F /  -0.6 °C 29.55in /  1000.6hPa West 4.0mph /  6.4km/h 5.0mph /  8km/h 77% 0.00in /  0mm 0 W/m2
19:23 37.2 °F /  2.9 °C 31.0 °F /  -0.6 °C 29.55in /  1000.6hPa West 4.0mph /  6.4km/h 4.0mph /  6.4km/h 78% 0.00in /  0mm 0 W/m2
19:28 37.2 °F /  2.9 °C 31.0 °F /  -0.6 °C 29.55in /  1000.6hPa West 4.0mph /  6.4km/h 5.0mph /  8km/h 78% 0.00in /  0mm 0 W/m2
19:33 37.4 °F /  3 °C 30.8 °F /  -0.7 °C 29.55in /  1000.6hPa West 4.0mph /  6.4km/h 5.0mph /  8km/h 77% 0.00in /  0mm 0 W/m2
19:38 37.3 °F /  2.9 °C 30.7 °F /  -0.7 °C 29.55in /  1000.6hPa West 4.0mph /  6.4km/h 5.0mph /  8km/h 77% 0.00in /  0mm 0 W/m2
19:43 37.3 °F /  2.9 °C 30.7 °F /  -0.7 °C 29.55in /  1000.6hPa West 4.0mph /  6.4km/h 5.0mph /  8km/h 77% 0.00in /  0mm 0 W/m2
19:48 37.3 °F /  2.9 °C 30.7 °F /  -0.7 °C 29.55in /  1000.6hPa West 4.0mph /  6.4km/h 5.0mph /  8km/h 77% 0.00in /  0mm 0 W/m2
19:53 37.1 °F /  2.8 °C 30.6 °F /  -0.8 °C 29.55in /  1000.6hPa West 5.0mph /  8km/h 5.0mph /  8km/h 77% 0.00in /  0mm 0 W/m2
19:58 36.9 °F /  2.7 °C 30.7 °F /  -0.7 °C 29.55in /  1000.6hPa WNW 5.0mph /  8km/h 6.0mph /  9.7km/h 78% 0.00in /  0mm 0 W/m2
20:03 37.1 °F /  2.8 °C 30.6 °F /  -0.8 °C 29.55in /  1000.6hPa West 5.0mph /  8km/h 7.0mph /  11.3km/h 77% 0.00in /  0mm 0 W/m2
20:08 37.1 °F /  2.8 °C 30.6 °F /  -0.8 °C 29.55in /  1000.6hPa West 5.0mph /  8km/h 7.0mph /  11.3km/h 77% 0.00in /  0mm 0 W/m2
20:13 37.2 °F /  2.9 °C 30.3 °F /  -0.9 °C 29.55in /  1000.6hPa WNW 6.0mph /  9.7km/h 7.0mph /  11.3km/h 76% 0.00in /  0mm 0 W/m2
20:18 37.1 °F /  2.8 °C 30.2 °F /  -1 °C 29.55in /  1000.6hPa WNW 4.0mph /  6.4km/h 7.0mph /  11.3km/h 76% 0.00in /  0mm 0 W/m2
20:23 36.9 °F /  2.7 °C 30.0 °F /  -1.1 °C 29.55in /  1000.6hPa WNW 4.0mph /  6.4km/h 7.0mph /  11.3km/h 76% 0.00in /  0mm 0 W/m2
20:28 36.5 °F /  2.5 °C 30.0 °F /  -1.1 °C 29.55in /  1000.6hPa West 4.0mph /  6.4km/h 6.0mph /  9.7km/h 77% 0.00in /  0mm 0 W/m2
20:33 36.3 °F /  2.4 °C 29.8 °F /  -1.2 °C 29.56in /  1000.9hPa West 4.0mph /  6.4km/h 6.0mph /  9.7km/h 77% 0.00in /  0mm 0 W/m2
20:38 35.7 °F /  2.1 °C 29.5 °F /  -1.4 °C 29.56in /  1000.9hPa West 3.0mph /  4.8km/h 6.0mph /  9.7km/h 78% 0.00in /  0mm 0 W/m2
20:43 35.1 °F /  1.7 °C 29.2 °F /  -1.6 °C 29.56in /  1000.9hPa Calm   4.0mph /  6.4km/h 79% 0.00in /  0mm 0 W/m2
20:48 34.7 °F /  1.5 °C 30.7 °F /  -0.7 °C 29.56in /  1000.9hPa Calm   4.0mph /  6.4km/h 85% 0.00in /  0mm 0 W/m2
20:53 34.4 °F /  1.3 °C 28.9 °F /  -1.7 °C 29.56in /  1000.9hPa Calm   3.0mph /  4.8km/h 80% 0.00in /  0mm 0 W/m2
20:58 33.9 °F /  1.1 °C 28.4 °F /  -2 °C 29.56in /  1000.9hPa Calm   3.0mph /  4.8km/h 80% 0.00in /  0mm 0 W/m2
21:03 33.6 °F /  0.9 °C 28.7 °F /  -1.8 °C 29.56in /  1000.9hPa Calm     82% 0.00in /  0mm 0 W/m2
21:08 33.6 °F /  0.9 °C 28.7 °F /  -1.8 °C 29.56in /  1000.9hPa Calm     82% 0.00in /  0mm 0 W/m2
21:13 33.2 °F /  0.7 °C 28.3 °F /  -2.1 °C 29.57in /  1001.2hPa Calm     82% 0.00in /  0mm 0 W/m2
21:18 32.8 °F /  0.4 °C 27.9 °F /  -2.3 °C 29.58in /  1001.6hPa Calm     82% 0.00in /  0mm 0 W/m2
21:23 32.9 °F /  0.5 °C 28.6 °F /  -1.9 °C 29.57in /  1001.2hPa Calm     84% 0.00in /  0mm 0 W/m2
21:28 33.6 °F /  0.9 °C 29.3 °F /  -1.5 °C 29.57in /  1001.2hPa WNW 4.0mph /  6.4km/h 4.0mph /  6.4km/h 84% 0.00in /  0mm 0 W/m2
21:33 33.8 °F /  1 °C 29.2 °F /  -1.6 °C 29.57in /  1001.2hPa NW 4.0mph /  6.4km/h 5.0mph /  8km/h 83% 0.00in /  0mm 0 W/m2
21:38 34.2 °F /  1.2 °C 29.3 °F /  -1.5 °C 29.58in /  1001.6hPa WNW 4.0mph /  6.4km/h 6.0mph /  9.7km/h 82% 0.00in /  0mm 0 W/m2
21:43 34.6 °F /  1.4 °C 29.7 °F /  -1.3 °C 29.58in /  1001.6hPa NW 4.0mph /  6.4km/h 6.0mph /  9.7km/h 82% 0.00in /  0mm 0 W/m2
21:48 34.8 °F /  1.6 °C 29.6 °F /  -1.3 °C 29.59in /  1001.9hPa NW 1.0mph /  1.6km/h 6.0mph /  9.7km/h 81% 0.00in /  0mm 0 W/m2
21:53 34.9 °F /  1.6 °C 29.7 °F /  -1.3 °C 29.59in /  1001.9hPa NW 4.0mph /  6.4km/h 6.0mph /  9.7km/h 81% 0.00in /  0mm 0 W/m2
21:58 35.1 °F /  1.7 °C 30.2 °F /  -1 °C 29.59in /  1001.9hPa NW 4.0mph /  6.4km/h 7.0mph /  11.3km/h 82% 0.00in /  0mm 0 W/m2
22:03 35.2 °F /  1.8 °C 30.3 °F /  -0.9 °C 29.59in /  1001.9hPa NW 4.0mph /  6.4km/h 7.0mph /  11.3km/h 82% 0.00in /  0mm 0 W/m2
22:08 35.2 °F /  1.8 °C 30.3 °F /  -0.9 °C 29.59in /  1001.9hPa NW 4.0mph /  6.4km/h 7.0mph /  11.3km/h 82% 0.00in /  0mm 0 W/m2
22:13 35.2 °F /  1.8 °C 30.6 °F /  -0.8 °C 29.59in /  1001.9hPa NW 4.0mph /  6.4km/h 6.0mph /  9.7km/h 83% 0.00in /  0mm 0 W/m2
22:18 35.0 °F /  1.7 °C 30.4 °F /  -0.9 °C 29.59in /  1001.9hPa NW 4.0mph /  6.4km/h 6.0mph /  9.7km/h 83% 0.00in /  0mm 0 W/m2
22:23 34.9 °F /  1.6 °C 30.6 °F /  -0.8 °C 29.59in /  1001.9hPa NW 4.0mph /  6.4km/h 6.0mph /  9.7km/h 84% 0.00in /  0mm 0 W/m2
22:28 34.9 °F /  1.6 °C 30.8 °F /  -0.7 °C 29.59in /  1001.9hPa NW 6.0mph /  9.7km/h 7.0mph /  11.3km/h 85% 0.00in /  0mm 0 W/m2
22:33 34.8 °F /  1.6 °C 30.8 °F /  -0.7 °C 29.59in /  1001.9hPa NW 4.0mph /  6.4km/h 7.0mph /  11.3km/h 85% 0.00in /  0mm 0 W/m2
22:38 34.8 °F /  1.6 °C 30.8 °F /  -0.7 °C 29.60in /  1002.3hPa NW 5.0mph /  8km/h 7.0mph /  11.3km/h 85% 0.00in /  0mm 0 W/m2
22:43 34.8 °F /  1.6 °C 31.0 °F /  -0.6 °C 29.60in /  1002.3hPa NW 4.0mph /  6.4km/h 8.0mph /  12.9km/h 86% 0.00in /  0mm 0 W/m2
22:48 34.7 °F /  1.5 °C 30.9 °F /  -0.6 °C 29.60in /  1002.3hPa NW 5.0mph /  8km/h 8.0mph /  12.9km/h 86% 0.00in /  0mm 0 W/m2
22:53 34.6 °F /  1.4 °C 31.1 °F /  -0.5 °C 29.60in /  1002.3hPa WNW 4.0mph /  6.4km/h 6.0mph /  9.7km/h 87% 0.00in /  0mm 0 W/m2
22:58 34.5 °F /  1.4 °C 31.0 °F /  -0.6 °C 29.61in /  1002.6hPa NW 4.0mph /  6.4km/h 6.0mph /  9.7km/h 87% 0.00in /  0mm 0 W/m2
23:03 34.4 °F /  1.3 °C 31.2 °F /  -0.4 °C 29.61in /  1002.6hPa WNW 6.0mph /  9.7km/h 6.0mph /  9.7km/h 88% 0.00in /  0mm 0 W/m2
23:08 34.3 °F /  1.3 °C 31.1 °F /  -0.5 °C 29.61in /  1002.6hPa WNW 4.0mph /  6.4km/h 6.0mph /  9.7km/h 88% 0.00in /  0mm 0 W/m2
23:13 34.2 °F /  1.2 °C 31.3 °F /  -0.4 °C 29.61in /  1002.6hPa NW 4.0mph /  6.4km/h 7.0mph /  11.3km/h 89% 0.00in /  0mm 0 W/m2
23:19 34.0 °F /  1.1 °C 31.1 °F /  -0.5 °C 29.61in /  1002.6hPa NW 4.0mph /  6.4km/h 7.0mph /  11.3km/h 89% 0.00in /  0mm 0 W/m2
23:24 33.9 °F /  1.1 °C 31.3 °F /  -0.4 °C 29.61in /  1002.6hPa NW 5.0mph /  8km/h 7.0mph /  11.3km/h 90% 0.00in /  0mm 0 W/m2
23:29 33.9 °F /  1.1 °C 31.3 °F /  -0.4 °C 29.61in /  1002.6hPa NW 4.0mph /  6.4km/h 7.0mph /  11.3km/h 90% 0.00in /  0mm 0 W/m2
23:34 33.7 °F /  0.9 °C 31.4 °F /  -0.3 °C 29.61in /  1002.6hPa WNW 5.0mph /  8km/h 7.0mph /  11.3km/h 91% 0.00in /  0mm 0 W/m2
23:39 33.6 °F /  0.9 °C 31.3 °F /  -0.4 °C 29.61in /  1002.6hPa NW 4.0mph /  6.4km/h 7.0mph /  11.3km/h 91% 0.00in /  0mm 0 W/m2
23:44 33.5 °F /  0.8 °C 31.4 °F /  -0.3 °C 29.62in /  1002.9hPa Calm   6.0mph /  9.7km/h 92% 0.00in /  0mm 0 W/m2
23:49 33.3 °F /  0.7 °C 31.2 °F /  -0.4 °C 29.62in /  1002.9hPa Calm   5.0mph /  8km/h 92% 0.00in /  0mm 0 W/m2
23:54 33.3 °F /  0.7 °C 31.2 °F /  -0.4 °C 29.62in /  1002.9hPa WNW 4.0mph /  6.4km/h 5.0mph /  8km/h 92% 0.00in /  0mm 0 W/m2
23:59 33.2 °F /  0.7 °C 31.1 °F /  -0.5 °C 29.63in /  1003.3hPa Calm   5.0mph /  8km/h 92% 0.00in /  0mm 0 W/m2
Bismarck, North Dakota, USA
Compliments of Weather Underground - 2 mb